Terminal Aerodrome Forecast
Issued by NWS Amarillo, TX

Home | Current Version | Previous Version | Text Only | Print | Product List | Glossary On
Versions: 1 2 3 4 5 6 7 8 9 10 11 12 13
000
FTUS44 KAMA 201700
TAFAMA
TAF
KAMA 201720Z 2018/2118 18019G28KT P6SM SCT070 SCT200
     FM210100 18018KT P6SM BKN100
     FM210800 19016KT P6SM SCT100=

USA.gov is the U.S. government's official web portal to all federal, state and local government web resources and services.